createdAt,value
2019-03-04T00:09:57.454Z,12.87
2019-03-04T00:20:02.808Z,10.13
2019-03-04T00:30:11.263Z,11.97
2019-03-04T00:40:18.105Z,13.67
2019-03-04T00:50:23.548Z,12.27
2019-03-04T01:00:28.912Z,20.87
2019-03-04T01:10:34.404Z,13.70
2019-03-04T01:20:39.778Z,14.67
2019-03-04T01:30:45.104Z,13.70
2019-03-04T01:40:50.469Z,10.40
2019-03-04T01:50:55.841Z,12.33
2019-03-04T02:01:01.175Z,17.03
2019-03-04T02:11:07.519Z,11.20
2019-03-04T02:21:12.978Z,15.70
2019-03-04T02:31:18.377Z,12.70
2019-03-04T02:41:23.709Z,12.70
2019-03-04T02:51:29.093Z,16.00
2019-03-04T03:01:34.753Z,16.27
2019-03-04T03:11:40.144Z,14.60
2019-03-04T03:21:45.488Z,13.30
2019-03-04T03:31:50.845Z,16.47
2019-03-04T03:41:56.204Z,17.23
2019-03-04T03:52:01.584Z,13.63
2019-03-04T04:02:06.963Z,17.10
2019-03-04T04:12:13.350Z,18.57
2019-03-04T04:22:18.823Z,17.67
2019-03-04T04:32:24.191Z,18.50
2019-03-04T04:42:32.483Z,22.80
2019-03-04T04:52:41.847Z,22.47
2019-03-04T05:02:47.245Z,27.63
2019-03-04T05:12:55.090Z,22.23
2019-03-04T05:23:00.457Z,24.23
2019-03-04T05:33:05.841Z,24.73
2019-03-04T05:43:11.204Z,27.07
2019-03-04T05:53:16.564Z,24.70
2019-03-04T06:03:23.363Z,24.50
2019-03-04T06:13:28.744Z,30.47
2019-03-04T06:23:34.312Z,28.17
2019-03-04T06:33:42.608Z,32.30
2019-03-04T06:43:49.143Z,29.07
2019-03-04T06:54:15.942Z,29.67
2019-03-04T07:04:27.135Z,30.87
2019-03-04T07:14:32.516Z,19.90
2019-03-04T07:24:37.903Z,23.37
2019-03-04T07:34:44.259Z,18.97
2019-03-04T07:44:49.635Z,15.63
2019-03-04T07:54:54.997Z,21.27
2019-03-04T08:05:00.366Z,22.00
2019-03-04T08:15:08.338Z,15.37
2019-03-04T08:25:14.856Z,13.07
2019-03-04T08:35:20.244Z,18.90
2019-03-04T08:45:25.620Z,11.13
2019-03-04T08:55:30.981Z,10.43
2019-03-04T09:05:36.318Z,14.07
2019-03-04T09:15:41.835Z,11.67
2019-03-04T09:26:14.440Z,12.17
2019-03-04T09:36:19.921Z,13.80
2019-03-04T09:46:25.353Z,11.97
2019-03-04T09:56:30.912Z,10.53
2019-03-04T10:07:05.066Z,12.17
2019-03-04T10:17:22.411Z,9.20
2019-03-04T10:27:33.620Z,13.80
2019-03-04T10:37:47.849Z,10.03
2019-03-04T10:47:53.284Z,15.17
2019-03-04T10:57:58.727Z,10.53
2019-03-04T11:08:04.143Z,13.87
2019-03-04T11:18:09.511Z,10.93
2019-03-04T11:28:16.439Z,10.23
2019-03-04T11:38:34.841Z,10.83
2019-03-04T11:48:41.383Z,9.57
2019-03-04T11:58:46.743Z,14.50
2019-03-04T12:08:52.140Z,7.57
2019-03-04T12:18:58.580Z,8.83
2019-03-04T12:29:03.935Z,10.63
2019-03-04T12:39:11.716Z,17.23
2019-03-04T12:49:17.296Z,25.83
2019-03-04T12:59:22.686Z,17.97
2019-03-04T13:09:28.055Z,11.33
2019-03-04T13:19:33.430Z,30.07
2019-03-04T13:29:38.801Z,5.07
2019-03-04T13:39:44.184Z,7.73
2019-03-04T13:49:49.538Z,9.63
2019-03-04T13:59:54.927Z,15.30
2019-03-04T14:10:00.337Z,10.33
2019-03-04T14:20:08.760Z,9.50
2019-03-04T14:30:17.090Z,10.33
2019-03-04T14:40:22.660Z,13.23
2019-03-04T14:50:29.352Z,14.67
2019-03-04T15:00:40.895Z,16.20
2019-03-04T15:10:46.254Z,21.27
2019-03-04T15:20:51.657Z,29.20
2019-03-04T15:30:59.052Z,25.63
2019-03-04T15:41:04.420Z,20.83
2019-03-04T15:51:09.797Z,16.83
2019-03-04T16:01:15.983Z,28.10
2019-03-04T16:11:35.673Z,24.70
2019-03-04T16:21:41.161Z,24.83
2019-03-04T16:31:48.422Z,25.53
2019-03-04T16:41:53.809Z,28.57
2019-03-04T16:51:59.257Z,28.43
2019-03-04T17:02:04.972Z,31.30
2019-03-04T17:12:10.575Z,39.07
2019-03-04T17:22:16.309Z,37.47
2019-03-04T17:32:21.666Z,52.13
2019-03-04T17:42:29.461Z,77.07
2019-03-04T17:52:34.804Z,20.60
2019-03-04T18:02:41.352Z,13.27
2019-03-04T18:12:47.023Z,14.50
2019-03-04T18:22:53.568Z,8.67
2019-03-04T18:33:27.655Z,11.17
2019-03-04T18:43:47.965Z,20.27
2019-03-04T18:53:55.044Z,11.47
2019-03-04T19:04:01.746Z,19.17
2019-03-04T19:14:07.381Z,15.27
2019-03-04T19:24:12.749Z,17.07
2019-03-04T19:34:18.288Z,22.03
2019-03-04T19:44:23.823Z,17.67
2019-03-04T19:54:30.408Z,15.93
2019-03-04T20:04:43.480Z,15.43
2019-03-04T20:14:48.937Z,12.53
2019-03-04T20:24:58.053Z,11.17
2019-03-04T20:35:14.661Z,14.60
2019-03-04T20:45:21.694Z,11.13
2019-03-04T20:55:28.295Z,13.23
2019-03-04T21:05:34.344Z,14.10
2019-03-04T21:15:39.954Z,17.77
2019-03-04T21:25:54.356Z,16.57
2019-03-04T21:36:02.955Z,23.73
2019-03-04T21:46:36.975Z,26.77
2019-03-04T21:56:59.944Z,23.20
2019-03-04T22:07:05.282Z,15.17
2019-03-04T22:17:10.952Z,17.93
2019-03-04T22:27:16.323Z,16.83
2019-03-04T22:37:21.695Z,14.57
2019-03-04T22:47:27.139Z,17.63
2019-03-04T22:57:32.521Z,16.10
2019-03-04T23:07:38.909Z,24.97
2019-03-04T23:17:44.275Z,18.17
2019-03-04T23:27:49.648Z,17.87
2019-03-04T23:37:54.992Z,18.93
2019-03-04T23:48:00.366Z,18.00
2019-03-04T23:58:05.755Z,15.27
